This is the latest recevied weather packets stored in our database for station/object K7FRY. If no packets are shown the sender has not sent any weather packets the latest 10 day(s).
| Time | Temp. | Humidity | Pressure | Rain* | Wind** | Luminosity | Snow |
|---|---|---|---|---|---|---|---|
| 1778085814 | 20.56° C | 37% | 1018.1 hPa | 0 mm | - | 772 W/m² | - |
| 1778085512 | 21.11° C | 37% | 1018 hPa | 0 mm | - | 789 W/m² | - |
| 1778085206 | 20.56° C | 37% | 1017.8 hPa | 0 mm | - | 805 W/m² | - |
| 1778084902 | 20° C | 38% | 1017.9 hPa | 0 mm | - | 796 W/m² | - |
| 1778084600 | 20.56° C | 37% | 1017.7 hPa | 0 mm | - | 800 W/m² | - |
| 1778084297 | 20° C | 38% | 1017.9 hPa | 0 mm | - | 810 W/m² | - |
| 1778083994 | 20° C | 40% | 1017.9 hPa | 0 mm | - | 793 W/m² | - |
| 1778083692 | 20° C | 39% | 1018 hPa | 0 mm | - | 775 W/m² | - |
| 1778083388 | 19.44° C | 40% | 1017.8 hPa | 0 mm | - | 755 W/m² | - |
| 1778083087 | 20° C | 39% | 1017.7 hPa | 0 mm | - | 728 W/m² | - |
| 1778082783 | 19.44° C | 40% | 1017.9 hPa | 0 mm | - | 692 W/m² | - |
| 1778081656 | 18.89° C | 44% | 1017.9 hPa | 0 mm | - | 586 W/m² | - |
| 1778081354 | 18.89° C | 44% | 1017.9 hPa | 0 mm | - | 565 W/m² | - |
| 1778081050 | 18.33° C | 45% | 1017.9 hPa | 0 mm | - | 540 W/m² | - |
| 1778080749 | 18.33° C | 44% | 1017.9 hPa | 0 mm | - | 473 W/m² | - |
| 1778080445 | 18.89° C | 43% | 1017.8 hPa | 0 mm | - | 443 W/m² | - |
| 1778080143 | 17.78° C | 46% | 1017.6 hPa | 0 mm | - | 409 W/m² | - |
| 1778079839 | 17.78° C | 47% | 1017.8 hPa | 0 mm | - | 376 W/m² | - |
| 1778079536 | 17.22° C | 49% | 1017.7 hPa | 0 mm | - | 409 W/m² | - |
| 1778079232 | 16.67° C | 50% | 1017.7 hPa | 0 mm | - | 337 W/m² | - |
| 1778078930 | 17.22° C | 51% | 1017.8 hPa | 0 mm | - | 325 W/m² | - |
| 1778078626 | 16.67° C | 51% | 1017.8 hPa | 0 mm | - | 302 W/m² | - |
| 1778078325 | 16.11° C | 53% | 1017.9 hPa | 0 mm | - | 51 W/m² | - |
| 1778078021 | 16.11° C | 54% | 1017.8 hPa | 0 mm | - | 271 W/m² | - |
| 1778077720 | 16.11° C | 56% | 1017.7 hPa | 0 mm | - | 257 W/m² | - |
* Rain latest hour (hover to see other rain measurements)
** Current wind speed in m/s (hover to see current wind gust speed)